Time;durP1;ratioP1;P1;durP2;ratioP2;P2;SDS_P1;SDS_P2;PMS_P1;PMS_P2;Temp;Humidity;BMP_temperature;BMP_pressure;BME280_temperature;BME280_humidity;BME280_pressure;Samples;Min_cycle;Max_cycle;Signal;HPM_P1;HPM_P2
2022/07/29 00:01:31;;;;;;;2.38;1.80;;;17.70;99.90;;;-141.84;46.36;20799.66;4993187;28;20283;-62
2022/07/29 00:03:59;;;;;;;4.28;1.88;;;17.60;99.90;;;-141.84;46.40;20830.16;5011788;28;20750;-64
2022/07/29 00:06:27;;;;;;;2.67;1.70;;;17.60;99.90;;;-141.84;46.42;20826.09;5012310;28;20238;-62
2022/07/29 00:08:55;;;;;;;5.28;1.90;;;17.60;99.90;;;-141.84;46.35;20830.16;5011956;28;20314;-61
2022/07/29 00:11:23;;;;;;;4.10;2.00;;;17.60;99.90;;;-141.84;46.57;20832.19;5017081;28;20312;-62
2022/07/29 00:13:52;;;;;;;3.80;1.70;;;17.60;99.90;;;-141.84;46.56;20813.88;5031994;28;20204;-62
2022/07/29 00:16:20;;;;;;;2.90;1.60;;;17.60;99.90;;;-141.84;46.46;20858.59;5032365;28;20233;-63
2022/07/29 00:18:49;;;;;;;2.55;1.75;;;17.70;99.90;;;-141.84;46.46;20824.06;5031490;28;20237;-63
2022/07/29 00:21:18;;;;;;;3.78;1.70;;;17.60;99.90;;;-141.84;45.94;20889.09;5031780;28;20568;-62
2022/07/29 00:23:46;;;;;;;3.00;1.63;;;17.70;99.90;;;-141.84;46.07;20866.75;5031516;28;20792;-63
2022/07/29 00:26:14;;;;;;;2.40;1.90;;;17.70;99.90;;;-141.84;46.34;20820.00;5031727;28;20249;-61
2022/07/29 00:28:42;;;;;;;2.90;1.73;;;17.60;99.90;;;-141.84;46.69;20791.53;5031259;28;20285;-62
2022/07/29 00:31:10;;;;;;;2.78;1.70;;;17.60;99.90;;;-141.84;46.58;20850.47;5032056;28;20202;-61
2022/07/29 00:33:39;;;;;;;3.03;1.65;;;17.60;99.90;;;-141.84;46.46;20848.44;5031508;28;20230;-61
2022/07/29 00:36:07;;;;;;;5.28;1.90;;;17.60;99.90;;;-141.84;46.35;20822.03;5031594;28;20649;-60
2022/07/29 00:38:35;;;;;;;6.03;1.77;;;17.60;99.90;;;-141.84;46.71;20769.16;5031250;28;20233;-62
2022/07/29 00:41:03;;;;;;;2.65;1.88;;;17.50;99.90;;;-141.84;46.70;20807.78;5031513;28;20221;-63
2022/07/29 00:43:32;;;;;;;3.80;2.00;;;17.50;99.90;;;-141.84;47.02;20799.66;5031923;28;20293;-62
2022/07/29 00:46:00;;;;;;;4.05;1.60;;;17.40;99.90;;;-141.84;46.54;20850.47;5011349;28;20245;-62
2022/07/29 00:48:28;;;;;;;2.67;1.75;;;17.50;99.90;;;-141.84;46.92;20779.31;5026984;28;20225;-60
2022/07/29 00:50:58;;;;;;;3.47;1.80;;;17.40;99.90;;;-141.84;46.98;20795.59;5019298;28;20309;-62
2022/07/29 00:53:28;;;;;;;3.88;1.85;;;17.40;99.90;;;-141.84;47.08;20777.28;5011619;28;20309;-63
2022/07/29 00:55:57;;;;;;;3.20;1.77;;;17.40;99.90;;;-141.84;47.42;20781.38;5011459;28;20373;-62
2022/07/29 00:58:27;;;;;;;4.70;1.80;;;17.30;99.90;;;-141.84;47.56;20759.00;5011807;28;20630;-62
2022/07/29 01:00:55;;;;;;;3.20;1.90;;;17.30;99.90;;;-141.84;47.67;20736.63;5011159;28;20317;-62
2022/07/29 01:03:23;;;;;;;3.97;1.90;;;17.30;99.90;;;-141.84;47.27;20783.41;5011283;28;20301;-62
2022/07/29 01:05:53;;;;;;;2.95;1.80;;;17.30;99.90;;;-141.84;47.46;20799.66;5011247;28;20659;-62
2022/07/29 01:08:22;;;;;;;3.00;1.50;;;17.30;99.90;;;-141.84;47.38;20765.09;5011326;28;20233;-64
2022/07/29 01:10:53;;;;;;;3.08;1.67;;;17.30;99.90;;;-141.84;47.61;20767.13;5011223;28;20249;-63
2022/07/29 01:13:23;;;;;;;2.28;1.88;;;17.30;99.90;;;-141.84;47.30;20777.28;5012093;28;20187;-62
2022/07/29 01:15:59;;;;;;;2.10;1.55;;;17.30;99.90;;;-141.84;47.28;20777.28;5010905;28;20223;-60
2022/07/29 01:18:35;;;;;;;5.28;1.95;;;17.30;99.90;;;-141.84;47.48;20761.03;5010900;28;20249;-63
2022/07/29 01:21:35;;;;;;;3.75;1.70;;;17.30;99.90;;;-141.84;47.83;20736.63;5011076;28;20245;-63
2022/07/29 01:24:34;;;;;;;3.83;1.73;;;17.20;99.90;;;-141.84;47.86;20736.63;5010841;28;20598;-61
2022/07/29 01:27:32;;;;;;;2.92;1.63;;;17.20;99.90;;;-141.84;47.76;20750.88;5011172;28;20580;-64
2022/07/29 01:30:03;;;;;;;3.65;1.60;;;17.20;99.90;;;-141.84;47.96;20761.03;5010041;28;20230;-62
2022/07/29 01:32:37;;;;;;;3.67;1.80;;;17.20;99.90;;;-141.84;47.66;20759.00;5009947;28;20226;-63
2022/07/29 01:35:13;;;;;;;5.15;1.90;;;17.20;99.90;;;-141.84;47.72;20761.03;5010057;28;20221;-61
2022/07/29 01:37:51;;;;;;;2.63;1.80;;;17.20;99.90;;;-141.84;48.00;20781.38;5009644;28;20274;-62
2022/07/29 01:40:25;;;;;;;2.63;1.90;;;17.10;99.90;;;-141.84;48.19;20726.47;5009946;28;20222;-64
2022/07/29 01:42:58;;;;;;;2.60;1.67;;;17.20;99.90;;;-141.84;48.33;20708.19;5009797;28;20321;-61
2022/07/29 01:45:39;;;;;;;3.08;1.80;;;17.10;99.90;;;-141.84;48.49;20732.56;5009507;28;20317;-61
2022/07/29 01:48:16;;;;;;;7.18;1.83;;;17.10;99.90;;;-141.84;48.37;20724.44;5022524;28;20229;-63
2022/07/29 01:50:50;;;;;;;2.90;1.70;;;17.00;99.90;;;-141.84;48.71;20710.22;5019655;28;20232;-61
2022/07/29 01:53:27;;;;;;;2.20;1.80;;;17.00;99.90;;;-141.84;48.86;20716.31;5009699;28;20228;-61
2022/07/29 01:56:07;;;;;;;3.03;1.95;;;17.00;99.90;;;-141.84;48.23;20726.47;5009390;28;20705;-63
2022/07/29 01:58:40;;;;;;;5.05;1.95;;;17.10;99.90;;;-141.84;48.57;20695.97;5009732;28;20191;-62
2022/07/29 02:01:14;;;;;;;3.17;2.28;;;17.00;99.90;;;-141.84;48.77;20720.38;5009738;28;20696;-62
2022/07/29 02:03:45;;;;;;;3.35;2.00;;;17.00;99.90;;;-141.84;48.94;20720.38;5009429;28;20329;-61
2022/07/29 02:06:19;;;;;;;3.45;1.92;;;16.90;99.90;;;-141.84;48.77;20706.16;5009625;28;20222;-62
2022/07/29 02:08:50;;;;;;;2.53;1.77;;;17.00;99.90;;;-141.84;48.79;20710.22;5009409;28;20250;-61
2022/07/29 02:11:19;;;;;;;2.90;1.98;;;16.90;99.90;;;-141.84;49.00;20710.22;5009307;28;20713;-62
2022/07/29 02:13:50;;;;;;;2.95;1.92;;;16.90;99.90;;;-141.84;49.19;20691.91;5009325;28;20669;-60
2022/07/29 02:16:23;;;;;;;2.67;1.67;;;16.90;99.90;;;-141.84;49.11;20706.16;5009993;28;20183;-63
2022/07/29 02:18:56;;;;;;;4.53;2.05;;;16.90;99.90;;;-141.84;48.83;20706.16;5027983;28;20612;-64
2022/07/29 02:21:27;;;;;;;3.97;2.00;;;16.70;99.90;;;-141.84;49.12;20708.19;5013799;28;20226;-61
2022/07/29 02:24:00;;;;;;;4.22;2.25;;;16.90;99.90;;;-141.84;48.74;20669.56;5009433;28;20234;-64
2022/07/29 02:26:31;;;;;;;4.70;2.03;;;16.90;99.90;;;-141.84;48.96;20734.59;5010031;28;20246;-63
2022/07/29 02:29:02;;;;;;;3.20;2.10;;;16.90;99.90;;;-141.84;48.69;20736.63;5012822;28;20230;-62
2022/07/29 02:31:37;;;;;;;2.85;2.15;;;16.90;99.90;;;-141.84;49.00;20675.66;5013316;28;20205;-61
2022/07/29 02:34:09;;;;;;;4.78;1.80;;;16.90;99.90;;;-141.84;49.31;20708.19;5012811;28;20527;-60
2022/07/29 02:36:40;;;;;;;2.80;1.77;;;16.80;99.90;;;-141.84;49.26;20683.78;5012831;28;20305;-62
2022/07/29 02:39:10;;;;;;;4.88;2.25;;;16.80;99.90;;;-141.84;49.21;20710.22;5012731;28;20710;-63
2022/07/29 02:41:44;;;;;;;3.13;1.83;;;16.80;99.90;;;-141.84;49.52;20681.75;5012534;28;20231;-62
2022/07/29 02:44:15;;;;;;;4.45;2.05;;;16.80;99.90;;;-141.84;49.19;20748.84;5012642;28;20314;-62
2022/07/29 02:46:51;;;;;;;2.67;1.75;;;16.80;99.90;;;-141.84;48.86;20714.28;5012764;28;20226;-62
2022/07/29 02:49:36;;;;;;;2.15;1.80;;;16.80;99.90;;;-141.84;49.55;20653.28;5013570;28;20193;-61
2022/07/29 02:52:09;;;;;;;3.40;2.05;;;16.80;99.90;;;-141.84;49.35;20708.19;5012728;28;20749;-63
2022/07/29 02:54:45;;;;;;;4.25;2.25;;;16.80;99.90;;;-141.84;49.39;20675.66;5012305;28;20230;-61
2022/07/29 02:57:23;;;;;;;2.53;1.90;;;16.80;99.90;;;-141.84;49.69;20683.78;5011997;28;20230;-62
2022/07/29 02:59:57;;;;;;;2.33;1.75;;;16.80;99.90;;;-141.84;49.54;20679.72;5012471;28;20256;-62
2022/07/29 03:02:29;;;;;;;4.72;2.00;;;16.70;99.90;;;-141.84;49.62;20716.31;5012068;28;20227;-60
2022/07/29 03:05:01;;;;;;;3.08;1.92;;;16.70;99.90;;;-141.84;49.49;20679.72;5012270;28;20906;-62
2022/07/29 03:07:30;;;;;;;3.67;1.92;;;16.70;99.90;;;-141.84;49.14;20704.13;5012832;28;20225;-63
2022/07/29 03:09:59;;;;;;;4.45;2.10;;;16.70;99.90;;;-141.84;48.96;20700.03;5032158;28;20245;-62
2022/07/29 03:12:30;;;;;;;2.92;2.10;;;16.80;99.90;;;-141.84;49.67;20647.19;5031739;28;20226;-64
2022/07/29 03:14:59;;;;;;;2.60;1.70;;;16.70;99.90;;;-141.84;49.88;20665.50;5020498;28;20314;-60
2022/07/29 03:17:31;;;;;;;3.13;2.03;;;16.70;99.90;;;-141.84;49.88;20663.47;5019123;28;20320;-62
2022/07/29 03:20:00;;;;;;;2.22;1.77;;;16.70;99.90;;;-141.84;49.53;20645.16;5028072;28;20222;-62
2022/07/29 03:22:29;;;;;;;3.70;1.80;;;16.70;99.90;;;-141.84;49.50;20683.78;5012431;28;20203;-62
2022/07/29 03:24:57;;;;;;;2.75;1.98;;;16.70;99.90;;;-141.84;49.76;20679.72;5011710;28;20318;-62
2022/07/29 03:27:25;;;;;;;4.95;2.10;;;16.70;99.90;;;-141.84;49.50;20661.44;5011466;28;20326;-62
2022/07/29 03:29:53;;;;;;;3.13;1.67;;;16.70;99.90;;;-141.84;49.66;20645.16;5011717;28;20321;-62
2022/07/29 03:32:21;;;;;;;4.40;2.38;;;16.70;99.90;;;-141.84;49.62;20671.59;5011533;28;20233;-61
2022/07/29 03:34:53;;;;;;;4.20;1.98;;;16.70;99.90;;;-141.84;49.89;20663.47;5011598;28;20662;-63
2022/07/29 03:37:22;;;;;;;3.30;1.73;;;16.70;99.90;;;-141.84;49.83;20667.53;5011850;28;20598;-62
2022/07/29 03:39:53;;;;;;;3.08;1.83;;;16.60;99.90;;;-141.84;50.06;20637.03;5011203;28;20218;-62
2022/07/29 03:42:25;;;;;;;3.88;2.08;;;16.60;99.90;;;-141.84;50.25;20649.22;5011605;28;20234;-62
2022/07/29 03:45:02;;;;;;;2.33;1.92;;;16.50;99.90;;;-141.84;50.16;20635.00;5011628;28;20606;-61
2022/07/29 03:47:33;;;;;;;4.15;1.92;;;16.50;99.90;;;-141.84;50.07;20639.06;5011457;28;20238;-62
2022/07/29 03:50:22;;;;;;;4.20;2.10;;;16.40;99.90;;;-141.84;50.36;20610.59;5011672;28;20257;-63
2022/07/29 03:52:51;;;;;;;4.38;2.00;;;16.50;99.90;;;-141.84;50.79;20592.31;5011560;28;20192;-61
2022/07/29 03:55:19;;;;;;;2.08;1.90;;;16.40;99.90;;;-141.84;50.90;20606.53;5011776;28;20217;-62
2022/07/29 03:57:50;;;;;;;2.38;1.83;;;16.40;99.90;;;-141.84;50.81;20626.88;5011249;28;20309;-61
2022/07/29 04:00:19;;;;;;;2.22;1.70;;;16.30;99.90;;;-141.84;50.80;20620.78;5011405;28;20227;-61
2022/07/29 04:02:49;;;;;;;2.58;1.90;;;16.40;99.90;;;-141.84;51.00;20641.09;5011002;28;20265;-63
2022/07/29 04:05:19;;;;;;;5.32;2.25;;;16.30;99.90;;;-141.84;50.85;20643.13;5011301;28;20237;-62
2022/07/29 04:07:49;;;;;;;3.45;2.20;;;16.40;99.90;;;-141.84;50.63;20590.28;5011091;28;20254;-62
2022/07/29 04:10:19;;;;;;;3.92;2.00;;;16.40;99.90;;;-141.84;50.38;20643.13;5011572;28;20238;-63
2022/07/29 04:12:59;;;;;;;3.00;1.95;;;16.50;99.90;;;-141.84;50.02;20661.44;5011794;28;20734;-62
2022/07/29 04:15:28;;;;;;;3.20;1.77;;;16.50;99.90;;;-141.84;50.15;20618.72;5010961;28;20257;-62
2022/07/29 04:17:58;;;;;;;3.15;1.77;;;16.50;99.90;;;-141.84;50.40;20649.22;5034735;28;20236;-61
2022/07/29 04:20:28;;;;;;;2.30;1.95;;;16.50;99.90;;;-141.84;49.89;20661.44;5043331;28;20230;-62
2022/07/29 04:22:56;;;;;;;2.80;2.10;;;16.60;99.90;;;-141.84;49.86;20651.25;5030637;28;20226;-61
2022/07/29 04:25:25;;;;;;;3.60;1.98;;;16.60;99.90;;;-141.84;49.46;20679.72;5031139;28;20772;-62
2022/07/29 04:28:02;;;;;;;4.30;2.00;;;16.70;99.90;;;-141.84;49.10;20689.88;5029505;28;20230;-62
2022/07/29 04:30:32;;;;;;;3.65;2.13;;;16.70;99.90;;;-141.84;48.76;20710.22;5010778;28;20234;-61
2022/07/29 04:33:01;;;;;;;3.25;2.20;;;16.80;99.90;;;-141.84;48.99;20708.19;5010613;28;20742;-61
2022/07/29 04:35:31;;;;;;;4.43;2.28;;;16.90;99.90;;;-141.84;48.78;20695.97;5010279;28;20246;-60
2022/07/29 04:38:07;;;;;;;3.65;2.17;;;16.80;99.90;;;-141.84;48.91;20704.13;5010583;28;20222;-63
2022/07/29 04:40:44;;;;;;;5.22;2.20;;;16.80;99.90;;;-141.84;48.98;20695.97;5010805;28;20202;-62
2022/07/29 04:43:14;;;;;;;3.08;2.30;;;16.80;99.90;;;-141.84;48.92;20708.19;5011512;28;20305;-62
2022/07/29 04:45:43;;;;;;;2.63;2.13;;;16.90;99.90;;;-141.84;48.50;20708.19;5010399;28;20378;-62
2022/07/29 04:48:11;;;;;;;4.50;2.13;;;16.90;99.90;;;-141.84;48.24;20720.38;5010292;28;20714;-61
2022/07/29 04:50:41;;;;;;;3.65;2.03;;;17.00;99.90;;;-141.84;48.16;20736.63;5010037;28;20241;-60
2022/07/29 04:53:09;;;;;;;5.32;2.25;;;17.00;99.90;;;-141.84;48.38;20736.63;5010598;28;20229;-61
2022/07/29 04:55:37;;;;;;;2.50;1.98;;;17.00;99.90;;;-141.84;48.55;20736.63;5010315;28;20302;-62
2022/07/29 04:58:07;;;;;;;3.08;2.42;;;17.00;99.90;;;-141.84;47.71;20746.81;5010586;28;20199;-61
2022/07/29 05:00:35;;;;;;;4.10;2.10;;;17.10;99.90;;;-141.84;47.86;20771.19;5010567;28;20230;-64
2022/07/29 05:03:03;;;;;;;3.08;2.03;;;17.10;99.90;;;-141.84;48.03;20744.78;5010039;28;20235;-62
2022/07/29 05:05:31;;;;;;;2.53;2.10;;;17.10;99.90;;;-141.84;48.32;20728.50;5010238;28;20729;-61
2022/07/29 05:08:01;;;;;;;3.88;2.67;;;17.20;99.90;;;-141.84;47.79;20767.13;5010206;28;20230;-61
2022/07/29 05:10:29;;;;;;;4.80;2.55;;;17.20;99.90;;;-141.84;47.36;20801.69;5010289;28;20682;-60
2022/07/29 05:12:57;;;;;;;4.95;2.40;;;17.40;99.90;;;-141.84;46.62;20872.84;5009673;28;20231;-62
2022/07/29 05:15:25;;;;;;;5.80;2.58;;;17.60;99.90;;;-141.84;46.49;20862.69;5009872;28;20238;-62
2022/07/29 05:17:53;;;;;;;4.15;2.22;;;17.70;99.90;;;-141.84;46.31;20895.19;5021006;28;20280;-61
2022/07/29 05:20:25;;;;;;;6.40;2.20;;;17.70;99.90;;;-141.84;45.82;20883.00;5022924;28;20223;-61
2022/07/29 05:22:54;;;;;;;5.47;2.20;;;17.80;99.90;;;-141.84;45.19;20948.06;5010147;28;20293;-61
2022/07/29 05:25:23;;;;;;;5.25;2.40;;;18.00;99.90;;;-141.84;45.39;20984.66;5010332;28;20208;-61
2022/07/29 05:28:11;;;;;;;2.90;2.20;;;18.20;99.90;;;-141.84;45.28;21019.22;5026311;28;20214;-62
2022/07/29 05:30:39;;;;;;;4.70;2.40;;;18.10;99.90;;;-141.84;44.79;21000.91;5009920;28;20226;-62
2022/07/29 05:33:08;;;;;;;3.75;2.22;;;18.30;99.90;;;-141.84;45.08;20992.78;5022435;28;20222;-62
2022/07/29 05:35:56;;;;;;;3.90;2.30;;;18.30;99.90;;;-141.84;44.71;21015.16;5029763;28;20233;-63
2022/07/29 05:38:28;;;;;;;10.07;2.80;;;18.30;99.90;;;-141.84;45.51;20984.66;5029094;28;20600;-60
2022/07/29 05:40:59;;;;;;;4.13;2.47;;;18.20;99.90;;;-141.84;45.30;21031.41;5029679;28;20291;-61
2022/07/29 05:43:27;;;;;;;5.45;2.45;;;18.40;99.90;;;-141.84;45.01;21033.44;5030066;28;20187;-62
2022/07/29 05:45:56;;;;;;;7.50;2.50;;;18.40;99.90;;;-141.84;44.62;21031.41;5029433;28;20353;-62
2022/07/29 05:48:25;;;;;;;5.07;2.60;;;18.50;99.90;;;-141.84;44.55;21057.84;5029379;28;20808;-63
2022/07/29 05:50:53;;;;;;;6.53;2.53;;;18.60;99.90;;;-141.84;44.25;21080.19;5029480;28;20312;-60
2022/07/29 05:53:21;;;;;;;4.03;2.55;;;18.70;99.90;;;-141.84;44.62;21000.91;5029513;28;20225;-62
2022/07/29 05:55:50;;;;;;;5.38;2.50;;;18.50;99.90;;;-141.84;44.55;21011.09;5029285;28;20216;-61
2022/07/29 05:58:20;;;;;;;6.47;2.50;;;18.50;99.90;;;-141.84;44.70;20998.88;5030161;28;20225;-61
2022/07/29 06:00:48;;;;;;;5.38;2.80;;;18.40;99.90;;;-141.84;44.42;21096.47;5029131;28;20584;-60
2022/07/29 06:03:16;;;;;;;5.07;2.70;;;18.50;99.90;;;-141.84;44.39;21041.56;5033269;28;20233;-73
2022/07/29 06:05:44;;;;;;;5.05;2.78;;;18.50;99.90;;;-141.84;44.47;21017.19;5033894;28;20605;-73
2022/07/29 06:08:12;;;;;;;4.70;2.63;;;18.40;99.90;;;-141.84;44.40;21055.81;5034637;28;20632;-74
2022/07/29 06:10:40;;;;;;;4.95;2.80;;;18.40;99.90;;;-141.84;44.19;21047.69;5034801;28;20202;-74
2022/07/29 06:13:08;;;;;;;5.40;2.55;;;18.50;99.90;;;-141.84;44.24;21047.69;5035209;28;20202;-74
2022/07/29 06:15:38;;;;;;;4.28;2.40;;;18.50;99.90;;;-141.84;44.35;21045.63;5034172;28;20309;-74
2022/07/29 06:18:08;;;;;;;4.60;2.58;;;18.60;99.90;;;-141.84;44.02;21096.47;5034096;28;20246;-75
2022/07/29 06:20:38;;;;;;;5.78;2.70;;;18.70;99.90;;;-141.84;44.26;21055.81;5034034;28;20226;-74
2022/07/29 06:23:06;;;;;;;10.90;3.00;;;18.70;99.90;;;-141.84;44.23;21051.75;5031500;28;20339;-72
2022/07/29 06:25:36;;;;;;;4.28;2.78;;;18.70;99.90;;;-141.84;44.54;21043.59;5022600;28;20206;-74
2022/07/29 06:28:05;;;;;;;6.07;3.10;;;18.70;99.90;;;-141.84;44.21;21021.25;5034797;28;20229;-74
2022/07/29 06:30:33;;;;;;;7.70;3.10;;;18.70;99.90;;;-141.84;44.52;21057.84;5034614;28;20253;-74
2022/07/29 06:33:04;;;;;;;6.65;3.03;;;18.70;99.90;;;-141.84;43.66;21131.03;5035096;28;20237;-74
2022/07/29 06:35:35;;;;;;;8.43;3.22;;;18.80;99.90;;;-141.84;43.62;21086.31;5036392;28;20225;-74
2022/07/29 06:38:08;;;;;;;6.75;2.95;;;18.90;99.90;;;-141.84;43.26;21155.44;5035987;28;20249;-74
2022/07/29 06:41:03;;;;;;;4.15;3.17;;;19.00;99.90;;;-141.84;43.37;21151.34;5035424;28;20236;-74
2022/07/29 06:43:35;;;;;;;8.00;2.83;;;19.10;99.90;;;-141.84;43.38;21151.34;5035717;28;20186;-75
2022/07/29 06:46:20;;;;;;;5.22;3.10;;;19.10;99.90;;;-141.84;43.05;21192.03;5036636;28;20202;-74
2022/07/29 06:48:51;;;;;;;8.20;2.97;;;19.20;99.90;;;-141.84;43.09;21187.97;5035910;28;20320;-75
2022/07/29 06:51:20;;;;;;;5.82;3.00;;;19.40;99.90;;;-141.84;42.91;21212.34;5033975;28;20226;-76
2022/07/29 06:53:52;;;;;;;5.50;2.67;;;19.50;99.90;;;-141.84;42.38;21279.44;5034874;28;20606;-74
2022/07/29 06:56:29;;;;;;;7.10;3.10;;;19.70;99.90;;;-141.84;41.42;21356.69;5033877;28;20260;-74
2022/07/29 06:58:58;;;;;;;6.57;2.75;;;20.00;99.90;;;-141.84;41.26;21370.94;5035585;28;20230;-73
2022/07/29 07:01:28;;;;;;;6.82;3.10;;;20.30;99.90;;;-141.84;41.17;21431.94;5034815;28;20198;-73
2022/07/29 07:03:58;;;;;;;4.90;3.10;;;20.40;99.90;;;-141.84;41.25;21427.88;5034418;28;20230;-73
2022/07/29 07:06:26;;;;;;;6.72;3.00;;;20.60;99.90;;;-141.84;40.63;21531.56;5034033;28;20329;-74
2022/07/29 07:08:54;;;;;;;8.15;2.50;;;20.80;99.90;;;-141.84;39.74;21590.53;5034023;28;20313;-73
2022/07/29 07:11:23;;;;;;;11.07;3.30;;;21.10;99.90;;;-141.84;39.08;21698.28;5033746;28;20348;-76
2022/07/29 07:13:51;;;;;;;8.75;3.55;;;21.50;99.90;;;-141.84;38.46;21761.31;5033976;28;20241;-74
2022/07/29 07:16:19;;;;;;;6.03;3.03;;;21.80;99.90;;;-141.84;37.91;21816.22;5034555;28;20238;-74
2022/07/29 07:18:47;;;;;;;10.75;3.42;;;22.00;99.90;;;-141.84;37.79;21842.66;5032944;28;20241;-74
2022/07/29 07:21:17;;;;;;;11.85;3.53;;;22.30;99.90;;;-141.84;37.69;21836.56;5034250;28;20252;-74
2022/07/29 07:23:46;;;;;;;8.77;3.20;;;22.40;99.90;;;-141.84;37.93;21775.56;5035775;28;20743;-74
2022/07/29 07:26:15;;;;;;;8.95;3.67;;;22.20;99.90;;;-141.84;38.00;21710.50;5042744;28;20233;-74
2022/07/29 07:28:43;;;;;;;7.68;3.78;;;22.20;99.90;;;-141.84;38.75;21661.69;5041901;28;20278;-73
2022/07/29 07:31:12;;;;;;;8.35;3.70;;;22.00;99.90;;;-141.84;38.80;21610.84;5042951;28;20271;-74
2022/07/29 07:33:40;;;;;;;6.68;4.20;;;21.90;99.90;;;-141.84;39.15;21551.91;5034202;28;20286;-75
2022/07/29 07:36:08;;;;;;;6.07;3.95;;;21.60;99.90;;;-141.84;39.54;21523.44;5033139;28;20241;-74
2022/07/29 07:38:38;;;;;;;6.20;4.18;;;21.40;99.90;;;-141.84;39.96;21537.66;5032916;28;20709;-75
2022/07/29 07:41:06;;;;;;;6.22;4.05;;;21.50;99.90;;;-141.84;39.95;21555.97;5033055;28;20590;-74
2022/07/29 07:43:34;;;;;;;5.38;3.70;;;21.50;99.90;;;-141.84;39.88;21533.59;5032830;28;20220;-74
2022/07/29 07:46:02;;;;;;;5.88;3.78;;;21.50;99.90;;;-141.84;39.82;21631.19;5034327;28;20205;-74
2022/07/29 07:48:30;;;;;;;9.95;4.60;;;21.70;99.90;;;-141.84;39.73;21555.97;5032786;28;20295;-75
2022/07/29 07:50:58;;;;;;;8.02;4.28;;;21.70;99.90;;;-141.84;39.58;21594.59;5033208;28;20226;-73
2022/07/29 07:53:29;;;;;;;7.30;4.10;;;21.70;99.90;;;-141.84;39.96;21545.78;5033003;28;20305;-73
2022/07/29 07:55:58;;;;;;;10.82;4.30;;;21.60;99.90;;;-141.84;40.24;21562.06;5032891;28;20308;-73
2022/07/29 07:58:38;;;;;;;7.78;4.45;;;21.60;99.90;;;-141.84;39.84;21631.19;5033331;28;20206;-75
2022/07/29 08:01:06;;;;;;;5.68;4.43;;;21.70;99.90;;;-141.84;39.97;21584.44;5033711;28;20312;-75
2022/07/29 08:03:34;;;;;;;4.70;4.25;;;21.70;99.90;;;-141.84;40.09;21570.19;5033584;28;20791;-74
2022/07/29 08:06:04;;;;;;;8.45;4.40;;;21.70;99.90;;;-141.84;40.14;21558.00;5033000;28;20253;-74
2022/07/29 08:08:32;;;;;;;5.90;3.78;;;21.70;99.90;;;-141.84;40.00;21596.63;5032613;28;20225;-75
2022/07/29 08:11:03;;;;;;;9.85;4.32;;;21.80;99.90;;;-141.84;39.89;21623.06;5033271;28;20236;-75
2022/07/29 08:13:38;;;;;;;6.03;4.15;;;21.80;99.90;;;-141.84;39.71;21612.88;5032953;28;20210;-73
2022/07/29 08:16:14;;;;;;;6.60;3.90;;;21.90;99.90;;;-141.84;39.47;21582.38;5033587;28;20836;-74
2022/07/29 08:18:44;;;;;;;6.07;4.50;;;21.90;99.90;;;-141.84;39.62;21661.69;5032907;28;20240;-73
2022/07/29 08:21:13;;;;;;;5.18;3.95;;;21.80;99.90;;;-141.84;39.68;21614.94;5032658;28;20587;-74
2022/07/29 08:23:48;;;;;;;6.78;4.30;;;21.90;99.90;;;-141.84;39.63;21639.31;5031507;28;20580;-75
2022/07/29 08:26:27;;;;;;;7.22;4.45;;;22.00;99.90;;;-141.84;39.47;21671.84;5031757;28;20242;-73
2022/07/29 08:28:55;;;;;;;6.03;3.97;;;22.10;99.90;;;-141.84;39.53;21682.03;5031914;28;20229;-74
2022/07/29 08:31:23;;;;;;;5.22;4.05;;;22.10;99.90;;;-141.84;38.93;21696.25;5032901;28;20208;-74
2022/07/29 08:33:51;;;;;;;7.38;4.30;;;22.20;99.90;;;-141.84;39.16;21694.22;5031942;28;20234;-75
2022/07/29 08:36:20;;;;;;;12.52;4.15;;;22.40;99.90;;;-141.84;38.60;21741.00;5031697;28;20225;-73
2022/07/29 08:38:49;;;;;;;5.80;3.88;;;22.50;99.90;;;-141.84;38.66;21771.50;5031402;28;20225;-76
2022/07/29 08:41:18;;;;;;;7.10;4.18;;;22.50;99.90;;;-141.84;38.41;21802.00;5031207;28;20780;-74
2022/07/29 08:43:49;;;;;;;9.98;3.83;;;22.70;99.90;;;-141.84;38.28;21848.75;5031343;28;20225;-74
2022/07/29 08:46:18;;;;;;;6.95;3.95;;;22.80;99.90;;;-141.84;37.94;21891.47;5031816;28;20190;-74
2022/07/29 08:48:47;;;;;;;6.03;3.50;;;23.00;99.90;;;-141.84;37.67;21921.97;5031240;28;20237;-74
2022/07/29 08:51:18;;;;;;;9.73;3.45;;;23.10;99.90;;;-141.84;37.45;21869.09;5031466;28;20234;-73
2022/07/29 08:53:49;;;;;;;7.35;3.50;;;23.20;99.90;;;-141.84;37.70;21942.31;5030846;28;20238;-75
2022/07/29 08:56:18;;;;;;;5.18;3.38;;;23.30;99.90;;;-141.84;37.13;21944.34;5031729;28;20233;-72
2022/07/29 08:58:50;;;;;;;6.53;3.75;;;23.30;99.90;;;-141.84;37.18;21987.03;5031491;28;20990;-72
2022/07/29 09:01:25;;;;;;;5.60;3.58;;;23.50;99.90;;;-141.84;37.12;22001.28;5031836;28;20638;-72
2022/07/29 09:04:10;;;;;;;8.32;3.90;;;23.60;99.90;;;-141.84;36.95;22013.47;5032007;28;20293;-66
2022/07/29 09:06:45;;;;;;;6.43;4.10;;;23.60;99.90;;;-141.84;36.67;22046.00;5031468;28;20226;-68
2022/07/29 09:09:14;;;;;;;7.50;4.30;;;23.80;99.90;;;-141.84;36.51;22078.53;5031185;28;20653;-75
2022/07/29 09:11:43;;;;;;;9.23;4.72;;;23.90;99.90;;;-141.84;36.36;22123.28;5035521;28;20307;-80
2022/07/29 09:14:14;;;;;;;4.78;4.10;;;24.10;99.90;;;-141.84;36.14;22151.75;5032916;28;20241;-75
2022/07/29 09:16:52;;;;;;;6.80;4.50;;;24.10;99.90;;;-141.84;35.91;22188.34;5029878;28;20198;-74
2022/07/29 09:19:28;;;;;;;8.48;4.38;;;24.20;99.90;;;-141.84;35.82;22229.03;5031235;28;20210;-73
2022/07/29 09:21:57;;;;;;;7.75;4.57;;;24.40;99.90;;;-141.84;35.69;22208.69;5030831;28;20308;-72
2022/07/29 09:24:28;;;;;;;5.72;4.88;;;24.40;99.90;;;-141.84;35.91;22251.41;5031949;28;20331;-71
2022/07/29 09:26:56;;;;;;;7.20;4.60;;;24.50;99.90;;;-141.84;35.66;22196.50;5031480;28;20237;-72
2022/07/29 09:29:27;;;;;;;9.60;4.63;;;24.60;99.90;;;-141.84;35.26;22277.84;5031862;28;20230;-76
2022/07/29 09:32:00;;;;;;;11.63;4.95;;;24.70;99.90;;;-141.84;35.65;22251.41;5032682;28;20221;-76
2022/07/29 09:34:31;;;;;;;6.63;4.72;;;24.70;99.90;;;-141.84;35.30;22290.03;5032440;28;20213;-73
2022/07/29 09:36:59;;;;;;;9.30;4.88;;;24.90;99.90;;;-141.84;35.25;22255.47;5015835;28;20268;-77
2022/07/29 09:39:30;;;;;;;6.68;4.80;;;24.80;99.90;;;-141.84;35.09;22265.63;5015737;28;20598;-79
2022/07/29 09:42:02;;;;;;;10.27;4.78;;;24.90;99.90;;;-141.84;35.24;22273.78;5015772;28;20231;-77
2022/07/29 09:44:47;;;;;;;16.08;5.45;;;24.90;99.90;;;-141.84;35.23;22310.38;5015224;28;20257;-77
2022/07/29 09:47:21;;;;;;;7.45;4.80;;;25.00;99.90;;;-141.84;35.16;22322.56;5015207;28;20225;-77
2022/07/29 09:49:57;;;;;;;6.80;4.18;;;25.00;99.90;;;-141.84;34.92;22346.97;5014689;28;20217;-75
2022/07/29 09:52:27;;;;;;;6.88;4.82;;;25.10;99.90;;;-141.84;34.85;22316.47;5014615;28;20193;-83
2022/07/29 09:55:06;;;;;;;7.18;4.65;;;25.20;99.90;;;-141.84;35.06;22326.66;5015935;28;20234;-84
2022/07/29 09:57:34;;;;;;;8.93;4.38;;;25.20;99.90;;;-141.84;34.80;22393.75;5014818;28;20256;-82
2022/07/29 10:00:08;;;;;;;7.97;5.00;;;25.40;99.90;;;-141.84;34.49;22336.81;5015998;28;20229;-82
2022/07/29 10:02:39;;;;;;;6.57;4.57;;;25.40;99.90;;;-141.84;34.55;22369.34;5027890;28;20265;-81
2022/07/29 10:05:20;;;;;;;8.40;4.30;;;25.30;99.90;;;-141.84;34.67;22363.25;5027211;28;20272;-83
2022/07/29 10:07:51;;;;;;;5.85;3.85;;;25.30;99.90;;;-141.84;34.63;22363.25;5027510;28;20273;-84
2022/07/29 10:10:24;;;;;;;5.68;3.85;;;25.30;99.90;;;-141.84;34.56;22369.34;5020858;28;20250;-83
2022/07/29 10:12:57;;;;;;;4.30;3.90;;;25.40;99.90;;;-141.84;34.41;22385.63;5018823;28;20248;-82
2022/07/29 10:15:38;;;;;;;6.68;4.10;;;25.40;99.90;;;-141.84;34.07;22428.31;5015205;28;20222;-76
2022/07/29 10:18:08;;;;;;;7.22;3.75;;;25.50;99.90;;;-141.84;34.40;22367.31;5026293;28;20703;-72
2022/07/29 10:20:38;;;;;;;6.63;3.70;;;25.40;99.90;;;-141.84;33.96;22424.25;5033356;28;20253;-77
2022/07/29 10:23:07;;;;;;;5.53;3.50;;;25.40;99.90;;;-141.84;34.21;22365.28;5033712;28;20297;-78